createdAt,value
2023-04-21T00:01:18.417Z,8.48
2023-04-21T00:04:09.963Z,7.82
2023-04-21T00:07:01.593Z,7.88
2023-04-21T00:09:50.371Z,7.63
2023-04-21T00:12:42.903Z,8.60
2023-04-21T00:15:32.356Z,8.05
2023-04-21T00:18:21.150Z,7.97
2023-04-21T00:21:11.448Z,7.85
2023-04-21T00:24:00.403Z,8.00
2023-04-21T00:26:49.204Z,8.30
2023-04-21T00:29:38.949Z,7.93
2023-04-21T00:32:27.701Z,8.05
2023-04-21T00:35:16.662Z,8.02
2023-04-21T00:38:06.944Z,8.30
2023-04-21T00:40:55.983Z,7.80
2023-04-21T00:44:02.407Z,8.80
2023-04-21T00:46:53.248Z,8.15
2023-04-21T00:49:46.419Z,8.52
2023-04-21T00:52:36.081Z,8.05
2023-04-21T00:55:26.296Z,8.32
2023-04-21T00:58:15.389Z,7.65
2023-04-21T01:01:05.656Z,8.18
2023-04-21T01:03:54.733Z,7.82
2023-04-21T01:06:44.456Z,8.32
2023-04-21T01:09:33.721Z,7.85
2023-04-21T01:12:26.954Z,8.05
2023-04-21T01:15:16.906Z,8.00
2023-04-21T01:18:05.835Z,7.65
2023-04-21T01:20:55.094Z,7.75
2023-04-21T01:23:45.504Z,7.40
2023-04-21T01:26:34.405Z,7.80
2023-04-21T01:29:23.656Z,8.35
2023-04-21T01:32:15.034Z,7.95
2023-04-21T01:35:04.230Z,7.85
2023-04-21T01:37:53.080Z,7.75
2023-04-21T01:40:43.849Z,8.05
2023-04-21T01:43:32.627Z,7.75
2023-04-21T01:46:21.836Z,8.18
2023-04-21T01:49:10.753Z,7.72
2023-04-21T01:51:59.853Z,7.80
2023-04-21T01:54:48.951Z,7.32
2023-04-21T01:57:39.466Z,7.70
2023-04-21T02:00:28.730Z,8.38
2023-04-21T02:03:18.061Z,7.80
2023-04-21T02:06:08.344Z,8.73
2023-04-21T02:08:57.016Z,8.23
2023-04-21T02:11:45.689Z,8.20
2023-04-21T02:14:35.849Z,8.20
2023-04-21T02:17:28.117Z,8.20
2023-04-21T02:20:18.547Z,7.97
2023-04-21T02:23:08.657Z,7.63
2023-04-21T02:25:57.664Z,7.45
2023-04-21T02:28:46.581Z,7.53
2023-04-21T02:31:53.745Z,7.45
2023-04-21T02:34:47.770Z,8.27
2023-04-21T02:37:36.833Z,7.85
2023-04-21T02:40:29.503Z,7.68
2023-04-21T02:43:18.293Z,7.85
2023-04-21T02:46:10.743Z,8.10
2023-04-21T02:49:01.196Z,7.10
2023-04-21T02:51:49.842Z,7.63
2023-04-21T02:54:38.677Z,7.70
2023-04-21T02:57:27.627Z,7.88
2023-04-21T03:00:16.893Z,8.25
2023-04-21T03:03:05.917Z,7.70
2023-04-21T03:05:59.680Z,7.63
2023-04-21T03:08:48.506Z,7.47
2023-04-21T03:11:37.848Z,7.25
2023-04-21T03:14:26.544Z,7.85
2023-04-21T03:17:15.172Z,7.50
2023-04-21T03:20:08.101Z,7.70
2023-04-21T03:22:58.277Z,6.90
2023-04-21T03:25:47.229Z,6.68
2023-04-21T03:28:36.081Z,7.07
2023-04-21T03:31:24.914Z,7.35
2023-04-21T03:34:13.521Z,7.97
2023-04-21T03:37:02.377Z,7.13
2023-04-21T03:39:54.992Z,7.35
2023-04-21T03:42:44.154Z,7.38
2023-04-21T03:45:32.827Z,7.53
2023-04-21T03:48:21.544Z,7.50
2023-04-21T03:51:10.164Z,6.63
2023-04-21T03:53:58.888Z,7.82
2023-04-21T03:56:48.907Z,7.18
2023-04-21T03:59:37.484Z,7.18
2023-04-21T04:02:26.428Z,7.68
2023-04-21T04:05:15.278Z,7.15
2023-04-21T04:08:04.522Z,7.15
2023-04-21T04:10:53.148Z,7.07
2023-04-21T04:13:46.156Z,7.35
2023-04-21T04:16:35.702Z,7.65
2023-04-21T04:19:24.479Z,7.20
2023-04-21T04:22:13.327Z,7.40
2023-04-21T04:25:02.395Z,6.78
2023-04-21T04:27:51.001Z,6.78
2023-04-21T04:30:42.048Z,7.55
2023-04-21T04:33:30.899Z,7.03
2023-04-21T04:36:20.213Z,7.20
2023-04-21T04:39:10.365Z,6.75
2023-04-21T04:41:59.525Z,7.32
2023-04-21T04:44:48.404Z,6.90
2023-04-21T04:47:38.746Z,7.05
2023-04-21T04:50:27.560Z,6.50
2023-04-21T04:53:16.217Z,7.35
2023-04-21T04:56:05.059Z,6.75
2023-04-21T04:58:53.792Z,6.90
2023-04-21T05:01:43.406Z,7.07
2023-04-21T05:04:34.980Z,6.95
2023-04-21T05:07:23.992Z,6.47
2023-04-21T05:10:12.638Z,6.47
2023-04-21T05:13:01.351Z,7.20
2023-04-21T05:15:50.011Z,7.07
2023-04-21T05:18:39.153Z,6.38
2023-04-21T05:21:30.047Z,6.30
2023-04-21T05:24:23.375Z,7.20
2023-04-21T05:27:12.177Z,6.90
2023-04-21T05:30:01.082Z,6.90
2023-04-21T05:32:49.844Z,7.00
2023-04-21T05:35:38.876Z,7.05
2023-04-21T05:38:28.988Z,6.03
2023-04-21T05:41:17.766Z,6.45
2023-04-21T05:44:06.624Z,6.60
2023-04-21T05:46:55.884Z,6.57
2023-04-21T05:49:50.426Z,6.32
2023-04-21T05:52:39.618Z,6.13
2023-04-21T05:55:29.863Z,6.55
2023-04-21T05:58:18.668Z,6.50
2023-04-21T06:01:07.640Z,6.53
2023-04-21T06:03:56.847Z,7.07
2023-04-21T06:06:45.657Z,6.20
2023-04-21T06:09:34.315Z,6.15
2023-04-21T06:12:24.422Z,6.30
2023-04-21T06:15:13.345Z,6.30
2023-04-21T06:18:05.332Z,6.10
2023-04-21T06:20:54.868Z,6.20
2023-04-21T06:23:44.021Z,6.20
2023-04-21T06:26:32.690Z,6.20
2023-04-21T06:29:22.905Z,6.45
2023-04-21T06:32:12.656Z,6.20
2023-04-21T06:35:01.675Z,5.88
2023-04-21T06:37:50.657Z,6.07
2023-04-21T06:40:39.669Z,5.45
2023-04-21T06:43:28.426Z,5.55
2023-04-21T06:46:19.033Z,6.18
2023-04-21T06:49:07.892Z,5.90
2023-04-21T06:51:56.640Z,5.70
2023-04-21T06:54:45.547Z,5.57
2023-04-21T06:57:34.937Z,5.70
2023-04-21T07:00:23.891Z,4.85
2023-04-21T07:03:14.369Z,4.95
2023-04-21T07:06:03.419Z,5.30
2023-04-21T07:08:52.262Z,4.80
2023-04-21T07:11:41.173Z,4.88
2023-04-21T07:14:30.135Z,5.20
2023-04-21T07:17:18.944Z,4.80
2023-04-21T07:20:10.671Z,4.47
2023-04-21T07:22:59.563Z,4.80
2023-04-21T07:25:48.349Z,4.75
2023-04-21T07:28:37.182Z,4.32
2023-04-21T07:31:26.154Z,4.53
2023-04-21T07:34:15.527Z,4.47
2023-04-21T07:37:05.866Z,4.72
2023-04-21T07:39:54.831Z,4.38
2023-04-21T07:42:43.509Z,4.70
2023-04-21T07:45:32.506Z,4.90
2023-04-21T07:48:21.200Z,4.35
2023-04-21T07:51:09.918Z,4.13
2023-04-21T07:54:02.955Z,4.20
2023-04-21T07:56:51.759Z,4.30
2023-04-21T07:59:40.789Z,4.45
2023-04-21T08:02:29.680Z,3.70
2023-04-21T08:05:18.623Z,4.50
2023-04-21T08:08:07.833Z,4.22
2023-04-21T08:10:57.988Z,4.25
2023-04-21T08:13:46.656Z,4.43
2023-04-21T08:16:35.921Z,4.05
2023-04-21T08:19:24.647Z,4.00
2023-04-21T08:22:14.838Z,3.33
2023-04-21T08:25:03.951Z,3.80
2023-04-21T08:27:54.005Z,3.40
2023-04-21T08:30:43.360Z,2.90
2023-04-21T08:33:32.277Z,3.10
2023-04-21T08:36:29.006Z,3.40
2023-04-21T08:39:18.945Z,3.20
2023-04-21T08:42:09.190Z,3.83
2023-04-21T08:44:59.227Z,3.88
2023-04-21T08:47:50.055Z,4.03
2023-04-21T08:50:40.179Z,3.55
2023-04-21T08:53:29.651Z,3.38
2023-04-21T08:56:18.605Z,3.40
2023-04-21T08:59:07.462Z,3.15
2023-04-21T09:02:11.242Z,3.17
2023-04-21T09:05:00.324Z,3.47
2023-04-21T09:07:49.621Z,3.38
2023-04-21T09:10:44.953Z,3.30
2023-04-21T09:13:37.957Z,3.40
2023-04-21T09:16:33.251Z,3.05
2023-04-21T09:19:23.560Z,3.40
2023-04-21T09:22:16.568Z,3.40
2023-04-21T09:25:05.922Z,2.80
2023-04-21T09:27:56.169Z,3.00
2023-04-21T09:30:45.306Z,3.08
2023-04-21T09:33:45.745Z,3.40
2023-04-21T09:36:39.902Z,3.10
2023-04-21T09:39:43.071Z,2.90
2023-04-21T09:42:39.134Z,3.08
2023-04-21T09:45:39.746Z,3.17
2023-04-21T09:48:33.310Z,3.13
2023-04-21T09:51:40.477Z,3.00
2023-04-21T09:54:35.365Z,3.40
2023-04-21T09:57:28.286Z,3.13
2023-04-21T10:00:19.086Z,3.45
2023-04-21T10:03:12.503Z,3.25
2023-04-21T10:06:02.183Z,3.10
2023-04-21T10:08:52.124Z,3.58
2023-04-21T10:11:43.013Z,3.20
2023-04-21T10:14:31.955Z,3.03
2023-04-21T10:17:25.839Z,3.05
2023-04-21T10:20:17.351Z,3.50
2023-04-21T10:23:06.418Z,3.25
2023-04-21T10:25:55.967Z,2.97
2023-04-21T10:28:48.091Z,3.00
2023-04-21T10:31:39.280Z,3.15
2023-04-21T10:34:35.493Z,3.40
2023-04-21T10:37:24.326Z,3.60
2023-04-21T10:43:49.259Z,3.70
2023-04-21T10:46:40.307Z,3.95
2023-04-21T10:49:31.274Z,3.67
2023-04-21T10:52:21.607Z,3.08
2023-04-21T10:55:12.846Z,3.60
2023-04-21T10:58:04.352Z,3.38
2023-04-21T11:00:59.343Z,3.13
2023-04-21T11:03:48.467Z,3.47
2023-04-21T11:06:37.719Z,3.30
2023-04-21T11:09:29.582Z,3.30
2023-04-21T11:12:19.736Z,3.38
2023-04-21T11:15:10.879Z,3.22
2023-04-21T11:18:01.359Z,3.40
2023-04-21T11:20:50.721Z,3.08
2023-04-21T11:23:42.512Z,3.45
2023-04-21T11:26:32.733Z,3.47
2023-04-21T11:29:23.251Z,3.35
2023-04-21T11:32:13.991Z,3.30
2023-04-21T11:35:08.528Z,3.15
2023-04-21T11:37:57.387Z,3.30
2023-04-21T11:40:49.314Z,3.05
2023-04-21T11:43:38.234Z,3.13
2023-04-21T11:46:28.967Z,3.47
2023-04-21T11:49:18.572Z,3.28
2023-04-21T11:52:08.774Z,3.22
2023-04-21T11:55:00.241Z,3.03
2023-04-21T11:57:51.327Z,2.80
2023-04-21T12:00:40.825Z,3.22
2023-04-21T12:03:30.113Z,3.08
2023-04-21T12:06:22.847Z,3.53
2023-04-21T12:09:19.002Z,3.00
2023-04-21T12:12:08.470Z,3.50
2023-04-21T12:14:57.253Z,3.50
2023-04-21T12:17:46.709Z,3.50
2023-04-21T12:20:36.073Z,3.63
2023-04-21T12:23:24.881Z,3.90
2023-04-21T12:26:15.448Z,3.70
2023-04-21T12:29:04.150Z,3.28
2023-04-21T12:31:53.149Z,3.67
2023-04-21T12:34:43.336Z,3.13
2023-04-21T12:37:32.299Z,3.70
2023-04-21T12:40:21.289Z,3.20
2023-04-21T12:43:11.923Z,3.55
2023-04-21T12:46:01.473Z,3.33
2023-04-21T12:48:52.411Z,2.97
2023-04-21T12:51:41.256Z,3.28
2023-04-21T12:54:30.018Z,3.03
2023-04-21T12:57:18.786Z,3.40
2023-04-21T13:00:12.984Z,3.35
2023-04-21T13:03:02.253Z,3.72
2023-04-21T13:05:51.204Z,3.05
2023-04-21T13:08:39.960Z,3.40
2023-04-21T13:11:29.220Z,3.20
2023-04-21T13:14:17.988Z,3.25
2023-04-21T13:17:08.242Z,2.97
2023-04-21T13:19:57.218Z,2.75
2023-04-21T13:22:46.154Z,3.17
2023-04-21T13:25:34.941Z,2.90
2023-04-21T13:28:24.227Z,2.63
2023-04-21T13:31:14.650Z,2.58
2023-04-21T13:34:04.960Z,3.08
2023-04-21T13:36:53.917Z,2.95
2023-04-21T13:39:42.697Z,3.10
2023-04-21T13:42:31.448Z,2.95
2023-04-21T13:45:20.391Z,3.38
2023-04-21T13:48:09.161Z,2.72
2023-04-21T13:50:59.212Z,2.67
2023-04-21T13:53:48.121Z,2.70
2023-04-21T13:56:37.695Z,2.53
2023-04-21T13:59:26.867Z,2.70
2023-04-21T14:02:15.788Z,2.70
2023-04-21T14:05:05.412Z,2.88
2023-04-21T14:07:55.919Z,2.83
2023-04-21T14:10:44.760Z,2.80
2023-04-21T14:13:41.893Z,2.80
2023-04-21T14:16:34.251Z,2.67
2023-04-21T14:19:23.305Z,2.97
2023-04-21T14:22:12.496Z,2.65
2023-04-21T14:25:02.734Z,2.45
2023-04-21T14:27:51.507Z,2.70
2023-04-21T14:30:42.725Z,2.80
2023-04-21T14:33:33.337Z,2.78
2023-04-21T14:36:22.494Z,2.80
2023-04-21T14:39:12.320Z,2.67
2023-04-21T14:42:03.072Z,2.47
2023-04-21T14:44:51.891Z,2.47
2023-04-21T14:47:40.849Z,2.30
2023-04-21T14:50:29.752Z,2.47
2023-04-21T14:53:18.956Z,2.90
2023-04-21T14:56:07.971Z,2.92
2023-04-21T14:58:58.202Z,3.00
2023-04-21T15:01:47.670Z,2.53
2023-04-21T15:04:36.847Z,2.70
2023-04-21T15:07:25.786Z,2.60
2023-04-21T15:10:15.021Z,3.05
2023-04-21T15:13:04.020Z,3.80
2023-04-21T15:15:54.269Z,2.72
2023-04-21T15:18:42.993Z,2.88
2023-04-21T15:21:32.479Z,2.80
2023-04-21T15:24:21.390Z,2.42
2023-04-21T15:27:11.040Z,2.90
2023-04-21T15:29:59.931Z,2.33
2023-04-21T15:32:50.074Z,3.03
2023-04-21T15:35:38.773Z,2.60
2023-04-21T15:38:27.859Z,2.92
2023-04-21T15:41:17.725Z,2.70
2023-04-21T15:44:06.861Z,3.38
2023-04-21T15:46:55.834Z,2.45
2023-04-21T15:49:46.061Z,2.78
2023-04-21T15:52:38.070Z,2.67
2023-04-21T15:55:29.305Z,2.70
2023-04-21T15:58:17.951Z,2.63
2023-04-21T16:01:07.122Z,3.15
2023-04-21T16:03:56.305Z,2.90
2023-04-21T16:06:46.430Z,2.90
2023-04-21T16:09:35.189Z,3.22
2023-04-21T16:12:24.182Z,3.20
2023-04-21T16:15:23.690Z,2.78
2023-04-21T16:18:16.607Z,3.03
2023-04-21T16:21:05.537Z,2.97
2023-04-21T16:23:55.944Z,2.80
2023-04-21T16:26:44.825Z,3.10
2023-04-21T16:29:34.004Z,2.92
2023-04-21T16:32:23.107Z,2.90
2023-04-21T16:35:12.384Z,2.50
2023-04-21T16:38:01.249Z,3.00
2023-04-21T16:40:51.588Z,2.80
2023-04-21T16:43:40.430Z,2.47
2023-04-21T16:46:29.706Z,2.67
2023-04-21T16:49:19.267Z,2.95
2023-04-21T16:52:08.061Z,3.08
2023-04-21T16:54:57.193Z,2.53
2023-04-21T16:57:47.257Z,2.90
2023-04-21T17:00:37.353Z,3.00
2023-04-21T17:03:27.586Z,2.85
2023-04-21T17:06:21.400Z,2.88
2023-04-21T17:09:11.187Z,2.85
2023-04-21T17:12:00.160Z,3.00
2023-04-21T17:14:50.465Z,2.90
2023-04-21T17:17:43.510Z,2.88
2023-04-21T17:20:32.696Z,3.00
2023-04-21T17:23:21.690Z,3.20
2023-04-21T17:26:13.263Z,3.15
2023-04-21T17:29:04.448Z,2.75
2023-04-21T17:31:55.039Z,3.00
2023-04-21T17:34:44.015Z,3.15
2023-04-21T17:37:33.151Z,2.90
2023-04-21T17:40:22.881Z,3.30
2023-04-21T17:43:14.516Z,3.45
2023-04-21T17:46:03.468Z,3.65
2023-04-21T17:48:53.567Z,3.53
2023-04-21T17:51:42.299Z,3.30
2023-04-21T17:54:31.078Z,3.13
2023-04-21T17:57:19.786Z,3.53
2023-04-21T18:00:11.904Z,3.33
2023-04-21T18:03:00.739Z,4.00
2023-04-21T18:05:51.463Z,3.63
2023-04-21T18:08:40.366Z,3.70
2023-04-21T18:11:29.496Z,3.70
2023-04-21T18:14:18.724Z,3.90
2023-04-21T18:17:07.644Z,3.95
2023-04-21T18:19:56.397Z,3.90
2023-04-21T18:22:47.530Z,4.55
2023-04-21T18:25:42.447Z,4.05
2023-04-21T18:28:32.612Z,4.22
2023-04-21T18:31:26.293Z,4.53
2023-04-21T18:34:16.665Z,4.07
2023-04-21T18:37:05.526Z,4.85
2023-04-21T18:39:55.729Z,4.18
2023-04-21T18:42:44.660Z,4.75
2023-04-21T18:45:34.019Z,4.78
2023-04-21T18:48:22.859Z,4.20
2023-04-21T18:51:14.146Z,4.35
2023-04-21T18:54:04.763Z,4.90
2023-04-21T18:56:55.200Z,4.80
2023-04-21T18:59:44.216Z,4.68
2023-04-21T19:02:33.505Z,5.10
2023-04-21T19:05:22.573Z,4.93
2023-04-21T19:08:13.869Z,4.85
2023-04-21T19:11:04.646Z,5.70
2023-04-21T19:13:55.099Z,5.22
2023-04-21T19:16:43.940Z,5.88
2023-04-21T19:19:33.035Z,4.90
2023-04-21T19:22:22.392Z,5.57
2023-04-21T19:25:12.522Z,5.40
2023-04-21T19:28:03.228Z,5.60
2023-04-21T19:30:53.512Z,5.50
2023-04-21T19:33:42.367Z,5.90
2023-04-21T19:36:31.527Z,5.65
2023-04-21T19:39:20.387Z,5.82
2023-04-21T19:42:10.056Z,5.18
2023-04-21T19:44:58.838Z,5.82
2023-04-21T19:47:49.512Z,5.70
2023-04-21T19:50:38.841Z,6.22
2023-04-21T19:53:27.776Z,6.03
2023-04-21T19:56:16.465Z,5.80
2023-04-21T19:59:05.785Z,6.78
2023-04-21T20:01:54.906Z,6.38
2023-04-21T20:04:45.428Z,6.95
2023-04-21T20:07:34.305Z,6.90
2023-04-21T20:10:23.156Z,7.55
2023-04-21T20:13:13.227Z,6.80
2023-04-21T20:16:02.343Z,6.57
2023-04-21T20:18:51.378Z,7.05
2023-04-21T20:21:42.558Z,7.80
2023-04-21T20:24:31.208Z,7.07
2023-04-21T20:27:20.780Z,7.05
2023-04-21T20:30:10.441Z,7.80
2023-04-21T20:32:59.314Z,7.25
2023-04-21T20:35:49.593Z,7.35
2023-04-21T20:38:39.989Z,7.30
2023-04-21T20:41:29.503Z,7.35
2023-04-21T20:44:20.918Z,7.00
2023-04-21T20:47:15.053Z,7.18
2023-04-21T20:50:04.679Z,7.60
2023-04-21T20:52:54.101Z,7.82
2023-04-21T20:55:44.233Z,8.00
2023-04-21T20:58:33.208Z,7.90
2023-04-21T21:01:23.676Z,7.88
2023-04-21T21:04:13.598Z,8.27
2023-04-21T21:07:02.638Z,7.95
2023-04-21T21:09:51.782Z,7.95
2023-04-21T21:12:45.315Z,8.60
2023-04-21T21:15:34.140Z,8.27
2023-04-21T21:18:22.773Z,8.05
2023-04-21T21:21:15.132Z,8.65
2023-04-21T21:24:04.026Z,8.93
2023-04-21T21:26:53.120Z,8.70
2023-04-21T21:29:44.494Z,9.48
2023-04-21T21:32:33.749Z,9.15
2023-04-21T21:35:22.620Z,8.75
2023-04-21T21:38:11.865Z,8.82
2023-04-21T21:41:01.073Z,8.43
2023-04-21T21:43:49.856Z,8.90
2023-04-21T21:46:40.574Z,8.07
2023-04-21T21:49:29.599Z,8.93
2023-04-21T21:52:18.377Z,8.45
2023-04-21T21:55:08.187Z,7.93
2023-04-21T21:57:57.205Z,8.50
2023-04-21T22:00:51.709Z,8.55
2023-04-21T22:03:45.893Z,8.52
2023-04-21T22:06:36.116Z,8.32
2023-04-21T22:09:24.792Z,8.07
2023-04-21T22:12:14.274Z,8.63
2023-04-21T22:15:03.339Z,8.30
2023-04-21T22:17:52.196Z,8.15
2023-04-21T22:20:42.747Z,7.60
2023-04-21T22:23:32.124Z,8.48
2023-04-21T22:26:21.119Z,8.10
2023-04-21T22:29:10.053Z,7.93
2023-04-21T22:31:59.237Z,8.40
2023-04-21T22:34:48.064Z,8.38
2023-04-21T22:37:38.319Z,7.78
2023-04-21T22:40:31.051Z,7.45
2023-04-21T22:43:19.755Z,7.38
2023-04-21T22:46:08.602Z,6.82
2023-04-21T22:48:57.431Z,6.50
2023-04-21T22:51:47.358Z,7.60
2023-04-21T22:54:37.744Z,6.70
2023-04-21T22:57:27.024Z,7.13
2023-04-21T23:00:17.229Z,7.00
2023-04-21T23:03:06.091Z,7.28
2023-04-21T23:05:54.993Z,7.00
2023-04-21T23:08:43.653Z,6.90
2023-04-21T23:11:34.044Z,6.63
2023-04-21T23:14:22.724Z,7.13
2023-04-21T23:17:11.594Z,6.78
2023-04-21T23:20:02.438Z,6.55
2023-04-21T23:22:51.953Z,7.22
2023-04-21T23:25:40.865Z,6.97
2023-04-21T23:28:30.912Z,6.45
2023-04-21T23:31:19.743Z,7.25
2023-04-21T23:34:08.452Z,6.43
2023-04-21T23:36:57.501Z,6.80
2023-04-21T23:39:46.204Z,6.28
2023-04-21T23:42:34.815Z,6.78
2023-04-21T23:45:24.938Z,7.43
2023-04-21T23:48:13.695Z,7.07
2023-04-21T23:51:02.696Z,7.03
2023-04-21T23:53:55.016Z,7.70
2023-04-21T23:56:43.644Z,7.30
2023-04-21T23:59:32.376Z,7.50
